• Join FlightAware (Why Join?)
  • Login
  • US Flag 
11:55AM EST


 

Airport Tracker/Info


-or-


 

Live Flight TrackerFlight Track Log ✈ EGF2839 ✈ 22-Apr-2013 ✈ KDFW - KGRR

Flight Track Log - Related Links

Times and Time Zones

All times are in EDT time to prevent confusion due to time zone crossing. See the EGF2839 flight status page for this flight to view local times or setup timezone preferences in your user account.

Time Position Orientation Groundspeed Altitude Reporting Facility
EDT Latitude Longitude Course Direction KTS MPH feet Rate Location/Type
04:04PM 32.8667 -97.0500 357° North 158 182 2,100  Level Dallas / Fort Worth TRACON
04:05PM 32.8000 -97.0667 192° South 221 254 3,900 1,980 Climbing Dallas / Fort Worth TRACON
04:06PM 32.8371 -96.8026 10° North  Level FlightAware Approximate
04:06PM 32.7667 -97.1167 232° Southwest 242 278 6,100  Level Dallas / Fort Worth TRACON
04:07PM 32.9549 -96.8000 North  Level FlightAware Approximate
04:07PM 32.7667 -97.2000 270° West 257 296 8,300  Level Dallas / Fort Worth TRACON
04:08PM 33.0729 -96.8004 357° North  Level FlightAware Approximate
04:08PM 32.8144 -97.2603 313° West 286 329 9,600  Level Fort Worth Center
04:09PM 33.1907 -96.8077 357° North  Level FlightAware Approximate
04:09PM 32.8833 -97.2750 350° North 317 365 10,900  Level Fort Worth Center
04:10PM 32.9836 -97.2697 North 339 390 12,600 1,560 Climbing Fort Worth Center
04:11PM 33.0586 -97.2150 31° Northeast 351 404 14,100 1,560 Climbing Fort Worth Center
04:12PM 33.1400 -97.1331 40° Northeast 351 404 15,800 1,500 Climbing Fort Worth Center
04:13PM 33.2150 -97.0558 41° Northeast 351 404 17,200 1,500 Climbing Fort Worth Center
04:14PM 33.2919 -96.9811 39° Northeast 356 410 18,800 1,380 Climbing Fort Worth Center
04:15PM 33.3708 -96.9036 39° Northeast 361 415 20,000 1,140 Climbing Fort Worth Center
04:16PM 33.4519 -96.8258 39° Northeast 368 423 21,100 1,320 Climbing Fort Worth Center
04:17PM 33.5436 -96.7656 29° Northeast 368 423 22,700 1,440 Climbing Fort Worth Center
04:18PM 33.6247 -96.7175 26° Northeast 358 412 24,000 1,380 Climbing Fort Worth Center
04:19PM 33.7119 -96.6594 29° Northeast 353 406 25,500 1,320 Climbing Fort Worth Center
04:20PM 33.7992 -96.6036 28° Northeast 353 406 26,700 1,200 Climbing Fort Worth Center
04:21PM 33.8844 -96.5478 29° Northeast 343 395 27,900 1,200 Climbing Fort Worth Center
04:22PM 33.9781 -96.4867 28° Northeast 343 395 29,200 1,200 Climbing Fort Worth Center
04:23PM 34.0631 -96.4306 29° Northeast 348 400 30,400 900 Climbing Fort Worth Center
04:24PM 34.1336 -96.3722 34° Northeast 339 390 31,000 300 Climbing Fort Worth Center
04:25PM 34.2228 -96.3008 33° Northeast 353 406 31,000 240 Level Fort Worth Center
04:26PM 34.3158 -96.2242 34° Northeast 379 436 31,500 780 Climbing Fort Worth Center
04:27PM 34.4111 -96.1422 35° Northeast 400 460 32,600 1,140 Climbing Fort Worth Center
04:28PM 34.5042 -96.0678 33° Northeast 406 467 33,800 1,140 Climbing Fort Worth Center
04:29PM 34.5992 -95.9906 34° Northeast 401 461 34,900 1,080 Climbing Fort Worth Center
04:30PM 34.6861 -95.9161 35° Northeast 391 450 36,000 1,020 Climbing Fort Worth Center
04:31PM 34.7728 -95.8436 34° Northeast 379 436 37,000 480 Climbing Fort Worth Center
04:32PM 34.8594 -95.7714 34° Northeast 385 443 37,000  Level Fort Worth Center
04:33PM 34.9500 -95.6683 43° Northeast 390 449 37,000  Level Fort Worth Center
04:34PM 35.0319 -95.5703 44° Northeast 397 457 37,000  Level Fort Worth Center
04:35PM 35.1764 -95.4022 44° Northeast 433 498 37,000  Level Memphis Center
04:36PM 35.2661 -95.2981 43° Northeast 443 510 37,000  Level Memphis Center
04:37PM 35.3494 -95.1986 44° Northeast 449 517 37,000  Level Memphis Center
04:38PM 35.4431 -95.0919 43° Northeast 449 517 37,000  Level Memphis Center
04:39PM 35.5350 -94.9825 44° Northeast 449 517 37,000  Level Memphis Center
04:40PM 35.6267 -94.8700 45° Northeast 449 517 37,000  Level Memphis Center
04:41PM 35.7203 -94.7600 44° Northeast 449 517 37,000  Level Memphis Center
04:42PM 35.8094 -94.6522 44° Northeast 449 517 37,000  Level Memphis Center
04:43PM 35.9008 -94.5442 44° Northeast 449 517 37,000  Level Memphis Center
04:44PM 35.9942 -94.4311 44° Northeast 449 517 37,000  Level Memphis Center
04:45PM 36.0831 -94.3197 45° Northeast 449 517 37,000  Level Memphis Center
04:46PM 36.1764 -94.2086 44° Northeast 449 517 37,000  Level Memphis Center
04:47PM 36.2672 -94.0997 44° Northeast 455 524 37,000  Level Memphis Center
04:48PM 36.3600 -93.9906 43° Northeast 450 518 37,000  Level Memphis Center
04:49PM 36.4350 -93.9036 43° Northeast 459 528 37,000  Level Kansas City Center
04:50PM 36.5303 -93.7933 43° Northeast 462 532 37,000  Level Kansas City Center
04:51PM 36.6236 -93.6836 43° Northeast 463 533 37,000  Level Kansas City Center
04:52PM 36.7167 -93.5747 43° Northeast 462 532 37,000  Level Kansas City Center
04:53PM 36.8086 -93.4664 43° Northeast 459 528 37,000  Level Kansas City Center
04:54PM 36.9075 -93.3522 43° Northeast 453 521 37,000  Level Kansas City Center
04:55PM 36.9981 -93.2456 43° Northeast 449 517 37,000  Level Kansas City Center
04:57PM 37.1075 -93.1147 44° Northeast 450 518 37,000  Level Kansas City Center
04:58PM 37.1994 -93.0086 43° Northeast 450 518 37,000  Level Kansas City Center
04:59PM 37.2903 -92.8992 44° Northeast 451 519 37,000  Level Kansas City Center
05:00PM 37.3808 -92.7897 44° Northeast 452 520 37,000  Level Kansas City Center
05:01PM 37.4711 -92.6769 45° Northeast 454 522 37,000  Level Kansas City Center
05:02PM 37.5617 -92.5678 44° Northeast 451 519 37,000  Level Kansas City Center
05:03PM 37.6708 -92.4361 44° Northeast 451 519 37,000  Level Kansas City Center
05:04PM 37.7481 -92.3439 43° Northeast 454 522 37,000  Level Kansas City Center
05:05PM 37.8544 -92.2092 45° Northeast 453 521 37,000  Level Kansas City Center
05:06PM 37.9458 -92.0961 44° Northeast 458 527 37,000  Level Kansas City Center
05:07PM 38.0472 -91.9739 43° Northeast 455 524 37,000  Level Kansas City Center
05:08PM 38.1375 -91.8636 44° Northeast 452 520 37,000  Level Kansas City Center
05:09PM 38.2275 -91.7514 44° Northeast 452 520 37,000  Level Kansas City Center
05:10PM 38.3186 -91.6369 45° Northeast 457 526 37,000  Level Kansas City Center
05:11PM 38.4092 -91.5225 45° Northeast 458 527 37,000  Level Kansas City Center
05:12PM 38.4983 -91.4094 45° Northeast 453 521 37,000  Level Kansas City Center
05:13PM 38.5969 -91.2886 44° Northeast 452 520 37,000  Level Kansas City Center
05:14PM 38.6847 -91.1761 45° Northeast 448 516 37,000  Level Kansas City Center
05:15PM 38.7736 -91.0644 44° Northeast 446 513 37,000  Level Kansas City Center
05:16PM 38.8614 -90.9536 44° Northeast 443 510 37,000  Level Kansas City Center
05:17PM 38.9481 -90.8422 45° Northeast 439 505 37,000  Level Kansas City Center
05:18PM 39.0533 -90.7078 45° Northeast 440 506 37,000  Level Kansas City Center
05:19PM 39.1414 -90.5939 45° Northeast 444 511 37,000  Level Kansas City Center
05:20PM 39.2303 -90.4786 45° Northeast 450 518 37,000  Level Kansas City Center
05:21PM 39.3194 -90.3639 45° Northeast 450 518 37,000  Level Kansas City Center
05:22PM 39.4078 -90.2483 45° Northeast 451 519 37,000  Level Kansas City Center
05:23PM 39.4967 -90.1319 45° Northeast 453 521 37,000  Level Kansas City Center
05:24PM 39.5856 -90.0144 46° Northeast 455 524 37,000  Level Kansas City Center
05:25PM 39.6919 -89.8744 45° Northeast 454 522 37,000  Level Kansas City Center
05:27PM 39.7708 -89.7692 46° Northeast 455 524 37,000  Level Kansas City Center
05:28PM 39.8589 -89.6514 46° Northeast 456 525 37,000  Level Kansas City Center
05:28PM 39.9472 -89.5392 44° Northeast 451 519 37,000  Level Chicago Center
05:29PM 40.0367 -89.4239 45° Northeast 454 522 37,000  Level Chicago Center
05:31PM 40.1442 -89.2878 44° Northeast 452 520 37,000  Level Chicago Center
05:32PM 40.2322 -89.1722 45° Northeast 451 519 37,000  Level Chicago Center
05:33PM 40.3208 -89.0567 45° Northeast 453 521 37,000  Level Chicago Center
05:34PM 40.4103 -88.9411 45° Northeast 453 521 37,000  Level Chicago Center
05:35PM 40.5031 -88.8192 45° Northeast 452 520 37,000 -300 Level Chicago Center
05:36PM 40.5914 -88.7014 45° Northeast 455 524 36,500 -600 Descending Chicago Center
05:37PM 40.6983 -88.5611 45° Northeast 454 522 35,800 -780 Descending Chicago Center
05:38PM 40.7850 -88.4442 46° Northeast 449 517 35,000 -600 Descending Chicago Center
05:39PM 40.8717 -88.3308 45° Northeast 444 511 34,600 -420 Descending Chicago Center
05:40PM 40.9592 -88.2167 45° Northeast 446 513 34,200 -480 Descending Chicago Center
05:41PM 41.0458 -88.1003 45° Northeast 449 517 33,700 -420 Descending Chicago Center
05:42PM 41.1489 -87.9619 45° Northeast 447 514 33,400 -360 Descending Chicago Center
05:43PM 41.2342 -87.8458 46° Northeast 446 513 33,000 -540 Descending Chicago Center
05:44PM 41.3208 -87.7286 45° Northeast 452 520 32,400 -600 Descending Chicago Center
05:45PM 41.4075 -87.6097 46° Northeast 455 524 31,800 -660 Descending Chicago Center
05:46PM 41.5128 -87.4647 46° Northeast 458 527 31,100 -540 Descending Chicago Center
05:47PM 41.6022 -87.3450 45° Northeast 460 529 30,700 -540 Descending Chicago Center
05:48PM 41.6903 -87.2225 46° Northeast 461 531 30,000 -660 Descending Chicago Center
05:49PM 41.7789 -87.0997 46° Northeast 463 533 29,400 -660 Descending Chicago Center
05:50PM 41.8658 -86.9769 46° Northeast 458 527 28,700 -1,440 Descending Chicago Center
05:51PM 41.9697 -86.8325 46° Northeast 452 520 26,500 -2,040 Descending Chicago Center
05:52PM 42.0594 -86.7094 45° Northeast 461 531 24,600 -1,800 Descending Chicago Center
05:53PM 42.1464 -86.5814 47° Northeast 468 539 22,800 -1,740 Descending Chicago Center
05:54PM 42.2344 -86.4578 46° Northeast 459 528 21,000 -2,100 Descending Chicago Center
05:55PM 42.3300 -86.3225 46° Northeast 441 507 18,500 -2,760 Descending Chicago Center
05:56PM 42.4089 -86.2092 47° Northeast 422 486 15,400 -2,880 Descending Chicago Center
05:57PM 42.4856 -86.1003 46° Northeast 405 466 12,600 -2,280 Descending Chicago Center
05:58PM 42.5558 -85.9958 48° Northeast 385 443 10,800 -1,680 Descending Chicago Center
05:59PM 42.6178 -85.9025 48° Northeast 347 399 9,200 -1,800 Descending Chicago Center
06:00PM 42.6736 -85.8256 45° Northeast 302 348 7,200 -2,160 Descending Chicago Center
06:02PM 42.7356 -85.7381 46° Northeast 277 319 4,800 -2,340 Descending Chicago Center